createdAt,value
2019-01-28T00:01:50.666Z,2.57
2019-01-28T00:04:19.532Z,4.67
2019-01-28T00:06:48.924Z,3.23
2019-01-28T00:09:18.215Z,3.53
2019-01-28T00:11:47.174Z,3.53
2019-01-28T00:14:16.147Z,4.07
2019-01-28T00:16:45.380Z,4.57
2019-01-28T00:19:14.323Z,3.87
2019-01-28T00:21:43.499Z,4.30
2019-01-28T00:24:12.447Z,4.53
2019-01-28T00:26:41.398Z,3.50
2019-01-28T00:29:10.243Z,3.23
2019-01-28T00:31:39.362Z,3.67
2019-01-28T00:34:08.234Z,4.23
2019-01-28T00:36:37.517Z,2.97
2019-01-28T00:39:09.162Z,3.33
2019-01-28T00:41:38.294Z,3.53
2019-01-28T00:44:07.139Z,4.80
2019-01-28T00:46:36.083Z,3.97
2019-01-28T00:49:04.963Z,4.43
2019-01-28T00:51:33.737Z,4.53
2019-01-28T00:54:02.506Z,3.03
2019-01-28T00:56:31.423Z,3.93
2019-01-28T00:59:00.552Z,3.53
2019-01-28T01:01:30.139Z,3.80
2019-01-28T01:03:59.540Z,3.83
2019-01-28T01:06:28.722Z,4.30
2019-01-28T01:08:57.823Z,4.60
2019-01-28T01:11:26.687Z,3.60
2019-01-28T01:13:55.618Z,3.00
2019-01-28T01:16:30.261Z,3.67
2019-01-28T01:18:59.373Z,4.00
2019-01-28T01:21:28.372Z,2.90
2019-01-28T01:23:57.175Z,3.10
2019-01-28T01:26:26.075Z,2.70
2019-01-28T01:28:54.891Z,2.93
2019-01-28T01:31:24.164Z,2.80
2019-01-28T01:33:52.941Z,1.97
2019-01-28T01:36:21.813Z,2.10
2019-01-28T01:38:50.727Z,2.03
2019-01-28T01:41:19.579Z,1.83
2019-01-28T01:43:48.519Z,2.40
2019-01-28T01:46:17.325Z,2.00
2019-01-28T01:48:46.151Z,1.23
2019-01-28T01:51:15.021Z,1.80
2019-01-28T01:53:43.874Z,1.70
2019-01-28T01:56:12.726Z,1.83
2019-01-28T01:58:41.550Z,1.67
2019-01-28T02:01:10.686Z,2.20
2019-01-28T02:03:39.589Z,1.60
2019-01-28T02:06:08.671Z,1.60
2019-01-28T02:08:37.533Z,1.80
2019-01-28T02:11:06.580Z,2.30
2019-01-28T02:13:35.493Z,1.30
2019-01-28T02:16:04.510Z,1.97
2019-01-28T02:18:33.289Z,2.43
2019-01-28T02:21:02.138Z,1.97
2019-01-28T02:23:30.954Z,2.37
2019-01-28T02:25:59.854Z,2.20
2019-01-28T02:28:29.074Z,2.70
2019-01-28T02:30:58.466Z,1.67
2019-01-28T02:33:27.350Z,2.60
2019-01-28T02:35:56.160Z,1.87
2019-01-28T02:38:25.044Z,1.70
2019-01-28T02:40:54.236Z,2.37
2019-01-28T02:43:22.999Z,2.00
2019-01-28T02:45:51.824Z,3.00
2019-01-28T02:48:20.683Z,2.53
2019-01-28T02:50:49.578Z,2.07
2019-01-28T02:53:18.445Z,3.23
2019-01-28T02:55:47.512Z,1.90
2019-01-28T02:58:16.549Z,3.50
2019-01-28T03:00:45.352Z,3.07
2019-01-28T03:03:14.141Z,1.97
2019-01-28T03:05:43.031Z,2.00
2019-01-28T03:08:12.042Z,1.80
2019-01-28T03:10:41.040Z,2.40
2019-01-28T03:13:09.862Z,2.43
2019-01-28T03:15:38.659Z,1.80
2019-01-28T03:18:07.688Z,2.33
2019-01-28T03:20:36.594Z,2.00
2019-01-28T03:23:06.291Z,1.40
2019-01-28T03:25:35.255Z,1.43
2019-01-28T03:28:04.118Z,2.50
2019-01-28T03:30:44.372Z,2.37
2019-01-28T03:33:13.233Z,2.00
2019-01-28T03:35:42.487Z,1.93
2019-01-28T03:38:11.261Z,2.33
2019-01-28T03:40:40.111Z,1.63
2019-01-28T03:43:09.102Z,2.90
2019-01-28T03:45:37.952Z,2.87
2019-01-28T03:48:06.797Z,2.93
2019-01-28T03:50:35.761Z,2.70
2019-01-28T03:53:04.739Z,3.33
2019-01-28T03:55:33.828Z,1.43
2019-01-28T03:58:02.700Z,2.50
2019-01-28T04:00:31.804Z,3.10
2019-01-28T04:03:00.712Z,1.93
2019-01-28T04:05:30.044Z,2.00
2019-01-28T04:07:58.927Z,2.80
2019-01-28T04:10:27.817Z,3.93
2019-01-28T04:12:56.680Z,2.30
2019-01-28T04:15:26.927Z,3.53
2019-01-28T04:17:55.858Z,2.87
2019-01-28T04:20:26.706Z,2.57
2019-01-28T04:22:55.667Z,2.67
2019-01-28T04:25:24.685Z,3.50
2019-01-28T04:27:53.526Z,3.27
2019-01-28T04:30:24.023Z,2.77
2019-01-28T04:32:52.932Z,3.60
2019-01-28T04:35:21.853Z,2.60
2019-01-28T04:37:50.854Z,2.70
2019-01-28T04:40:19.968Z,1.40
2019-01-28T04:42:48.824Z,1.30
2019-01-28T04:45:18.098Z,1.73
2019-01-28T04:47:48.072Z,1.82
2019-01-28T04:50:18.450Z,1.47
2019-01-28T04:52:47.365Z,2.07
2019-01-28T04:55:16.504Z,1.50
2019-01-28T04:57:45.765Z,1.20
2019-01-28T05:00:17.188Z,1.60
2019-01-28T05:02:46.138Z,1.60
2019-01-28T05:05:15.087Z,1.80
2019-01-28T05:07:43.991Z,1.20
2019-01-28T05:10:13.984Z,1.47
2019-01-28T05:12:42.852Z,1.87
2019-01-28T05:15:12.630Z,1.03
2019-01-28T05:17:41.792Z,1.10
2019-01-28T05:20:12.618Z,1.20
2019-01-28T05:22:42.036Z,1.10
2019-01-28T05:25:12.303Z,1.00
2019-01-28T05:27:41.268Z,1.20
2019-01-28T05:30:14.906Z,2.50
2019-01-28T05:32:43.954Z,1.20
2019-01-28T05:35:14.540Z,1.10
2019-01-28T05:37:43.425Z,0.90
2019-01-28T05:40:15.186Z,1.20
2019-01-28T05:42:44.085Z,1.03
2019-01-28T05:45:14.252Z,1.17
2019-01-28T05:47:44.019Z,1.27
2019-01-28T05:50:13.167Z,1.30
2019-01-28T05:52:42.193Z,0.90
2019-01-28T05:55:11.836Z,0.70
2019-01-28T05:57:40.841Z,0.83
2019-01-28T06:00:14.568Z,1.73
2019-01-28T06:02:43.543Z,1.17
2019-01-28T06:05:13.064Z,1.30
2019-01-28T06:07:42.543Z,2.20
2019-01-28T06:10:12.441Z,1.00
2019-01-28T06:12:41.894Z,1.30
2019-01-28T06:15:14.245Z,1.37
2019-01-28T06:17:44.356Z,2.90
2019-01-28T06:20:16.927Z,1.10
2019-01-28T06:22:46.012Z,1.70
2019-01-28T06:25:15.446Z,1.80
2019-01-28T06:27:44.429Z,1.50
2019-01-28T06:30:19.809Z,2.10
2019-01-28T06:32:49.029Z,1.67
2019-01-28T06:35:18.467Z,1.63
2019-01-28T06:37:47.799Z,1.40
2019-01-28T06:40:19.426Z,1.43
2019-01-28T06:42:49.034Z,1.20
2019-01-28T06:45:17.980Z,1.50
2019-01-28T06:47:48.022Z,1.40
2019-01-28T06:50:18.375Z,1.40
2019-01-28T06:52:47.479Z,1.00
2019-01-28T06:55:17.390Z,1.10
2019-01-28T06:57:46.468Z,1.10
2019-01-28T07:00:30.748Z,0.97
2019-01-28T07:03:00.063Z,1.20
2019-01-28T07:05:29.449Z,1.33
2019-01-28T07:07:58.313Z,1.83
2019-01-28T07:10:27.154Z,1.40
2019-01-28T07:12:56.116Z,1.17
2019-01-28T07:15:25.480Z,1.70
2019-01-28T07:17:55.390Z,1.20
2019-01-28T07:20:27.670Z,1.00
2019-01-28T07:22:56.604Z,1.13
2019-01-28T07:25:25.931Z,1.20
2019-01-28T07:27:55.414Z,1.60
2019-01-28T07:30:26.772Z,1.50
2019-01-28T07:32:55.772Z,1.97
2019-01-28T07:35:25.006Z,1.27
2019-01-28T07:37:53.977Z,1.10
2019-01-28T07:40:23.203Z,1.80
2019-01-28T07:42:52.133Z,1.77
2019-01-28T07:45:29.807Z,1.50
2019-01-28T07:48:03.105Z,1.50
2019-01-28T07:50:29.290Z,1.40
2019-01-28T07:52:58.198Z,1.60
2019-01-28T07:55:27.180Z,2.20
2019-01-28T07:57:56.084Z,1.90
2019-01-28T08:00:26.719Z,2.07
2019-01-28T08:02:55.724Z,2.40
2019-01-28T08:05:24.982Z,2.43
2019-01-28T08:07:54.057Z,1.50
2019-01-28T08:10:23.374Z,3.00
2019-01-28T08:12:52.836Z,1.33
2019-01-28T08:15:23.112Z,2.50
2019-01-28T08:17:52.096Z,2.30
2019-01-28T08:20:21.109Z,2.20
2019-01-28T08:22:50.554Z,2.30
2019-01-28T08:25:20.208Z,1.70
2019-01-28T08:27:49.546Z,1.93
2019-01-28T08:30:20.993Z,2.50
2019-01-28T08:32:50.237Z,2.33
2019-01-28T08:35:19.259Z,2.00
2019-01-28T08:37:48.497Z,2.10
2019-01-28T08:40:18.137Z,2.23
2019-01-28T08:42:47.449Z,3.23
2019-01-28T08:45:17.131Z,3.23
2019-01-28T08:47:46.292Z,2.60
2019-01-28T08:50:18.135Z,3.90
2019-01-28T08:52:47.313Z,4.33
2019-01-28T08:55:18.533Z,3.47
2019-01-28T08:57:49.022Z,3.10
2019-01-28T09:00:20.558Z,3.13
2019-01-28T09:02:49.456Z,3.70
2019-01-28T09:05:19.178Z,3.27
2019-01-28T09:07:48.110Z,3.20
2019-01-28T09:10:18.423Z,2.70
2019-01-28T09:12:47.339Z,3.10
2019-01-28T09:15:17.881Z,3.83
2019-01-28T09:17:46.854Z,4.07
2019-01-28T09:20:17.997Z,3.53
2019-01-28T09:22:46.991Z,3.70
2019-01-28T09:25:16.165Z,3.07
2019-01-28T09:27:45.343Z,4.00
2019-01-28T09:30:28.934Z,3.90
2019-01-28T09:32:57.848Z,4.23
2019-01-28T09:35:26.896Z,3.50
2019-01-28T09:37:57.095Z,3.10
2019-01-28T09:40:27.474Z,2.80
2019-01-28T09:42:56.635Z,3.83
2019-01-28T09:45:28.066Z,2.50
2019-01-28T09:47:56.942Z,3.43
2019-01-28T09:50:26.304Z,3.53
2019-01-28T09:52:56.020Z,3.70
2019-01-28T09:55:24.986Z,3.60
2019-01-28T09:57:53.945Z,4.30
2019-01-28T10:00:31.906Z,4.87
2019-01-28T10:03:01.234Z,3.70
2019-01-28T10:05:30.204Z,3.50
2019-01-28T10:07:59.282Z,3.43
2019-01-28T10:10:28.216Z,3.00
2019-01-28T10:12:57.527Z,3.10
2019-01-28T10:15:29.003Z,2.50
2019-01-28T10:17:57.627Z,3.70
2019-01-28T10:20:31.499Z,3.30
2019-01-28T10:23:00.777Z,4.00
2019-01-28T10:25:30.243Z,3.97
2019-01-28T10:27:59.415Z,3.27
2019-01-28T10:30:30.735Z,4.40
2019-01-28T10:32:59.780Z,4.00
2019-01-28T10:35:29.947Z,3.70
2019-01-28T10:37:58.927Z,3.17
2019-01-28T10:40:29.979Z,3.00
2019-01-28T10:43:00.937Z,3.07
2019-01-28T10:45:30.167Z,3.17
2019-01-28T10:48:00.884Z,2.53
2019-01-28T10:50:29.998Z,2.40
2019-01-28T10:52:58.848Z,3.73
2019-01-28T10:55:28.131Z,2.80
2019-01-28T10:57:57.219Z,3.90
2019-01-28T11:00:31.522Z,2.97
2019-01-28T11:03:00.812Z,3.70
2019-01-28T11:05:29.828Z,2.50
2019-01-28T11:07:58.806Z,3.73
2019-01-28T11:10:28.329Z,3.10
2019-01-28T11:12:57.359Z,2.30
2019-01-28T11:15:27.500Z,1.67
2019-01-28T11:17:57.129Z,2.80
2019-01-28T11:20:26.916Z,2.17
2019-01-28T11:22:55.882Z,2.20
2019-01-28T11:25:27.235Z,2.67
2019-01-28T11:27:56.182Z,2.30
2019-01-28T11:30:32.220Z,2.53
2019-01-28T11:33:01.173Z,2.87
2019-01-28T11:35:30.371Z,2.67
2019-01-28T11:37:59.388Z,2.13
2019-01-28T11:40:28.611Z,2.63
2019-01-28T11:42:57.943Z,3.00
2019-01-28T11:45:29.802Z,2.03
2019-01-28T11:47:58.709Z,2.20
2019-01-28T11:50:27.656Z,2.70
2019-01-28T11:52:56.720Z,2.63
2019-01-28T11:55:25.563Z,2.50
2019-01-28T11:57:54.498Z,2.30
2019-01-28T12:00:30.991Z,2.10
2019-01-28T12:03:00.182Z,2.27
2019-01-28T12:05:29.490Z,3.40
2019-01-28T12:07:58.426Z,1.93
2019-01-28T12:10:27.623Z,2.57
2019-01-28T12:12:56.495Z,1.93
2019-01-28T12:15:25.452Z,4.07
2019-01-28T12:17:54.514Z,2.73
2019-01-28T12:20:23.933Z,3.30
2019-01-28T12:22:53.388Z,2.50
2019-01-28T12:25:22.703Z,3.30
2019-01-28T12:27:51.737Z,2.90
2019-01-28T12:30:23.049Z,2.00
2019-01-28T12:32:52.479Z,2.07
2019-01-28T12:35:21.545Z,3.00
2019-01-28T12:37:50.510Z,3.20
2019-01-28T12:40:19.847Z,3.23
2019-01-28T12:42:49.111Z,2.13
2019-01-28T12:45:19.210Z,2.87
2019-01-28T12:47:48.896Z,2.50
2019-01-28T12:50:18.741Z,1.80
2019-01-28T12:52:48.232Z,2.23
2019-01-28T12:55:17.877Z,3.37
2019-01-28T12:57:46.953Z,3.30
2019-01-28T13:00:29.881Z,3.17
2019-01-28T13:02:58.967Z,3.17
2019-01-28T13:05:28.217Z,2.67
2019-01-28T13:07:57.707Z,2.70
2019-01-28T13:10:26.980Z,1.27
2019-01-28T13:12:55.843Z,1.60
2019-01-28T13:15:26.609Z,2.00
2019-01-28T13:17:56.140Z,2.13
2019-01-28T13:20:25.340Z,1.47
2019-01-28T13:22:54.304Z,1.87
2019-01-28T13:25:24.588Z,1.53
2019-01-28T13:27:53.387Z,1.77
2019-01-28T13:30:24.698Z,1.80
2019-01-28T13:32:54.335Z,2.00
2019-01-28T13:35:23.572Z,2.03
2019-01-28T13:37:52.465Z,1.50
2019-01-28T13:40:21.550Z,1.67
2019-01-28T13:42:50.396Z,1.40
2019-01-28T13:45:19.607Z,1.87
2019-01-28T13:47:49.498Z,1.70
2019-01-28T13:50:20.136Z,1.90
2019-01-28T13:52:49.839Z,1.77
2019-01-28T13:55:19.243Z,1.83
2019-01-28T13:57:48.835Z,1.90
2019-01-28T14:00:23.583Z,1.70
2019-01-28T14:02:52.514Z,1.80
2019-01-28T14:05:21.735Z,1.57
2019-01-28T14:07:50.664Z,1.20
2019-01-28T14:10:19.852Z,1.90
2019-01-28T14:12:49.166Z,1.73
2019-01-28T14:15:24.490Z,2.10
2019-01-28T14:17:53.348Z,1.43
2019-01-28T14:20:22.563Z,3.10
2019-01-28T14:22:51.634Z,2.80
2019-01-28T14:25:20.590Z,2.97
2019-01-28T14:27:50.113Z,1.83
2019-01-28T14:30:44.952Z,2.30
2019-01-28T14:33:13.904Z,4.00
2019-01-28T14:35:42.809Z,1.70
2019-01-28T14:38:13.042Z,2.10
2019-01-28T14:40:43.003Z,3.50
2019-01-28T14:43:11.946Z,2.10
2019-01-28T14:48:02.147Z,3.00
2019-01-28T14:50:32.312Z,2.50
2019-01-28T14:53:01.704Z,2.50
2019-01-28T14:55:30.691Z,2.50
2019-01-28T14:57:59.844Z,2.10
2019-01-28T15:00:31.253Z,2.53
2019-01-28T15:03:00.183Z,2.23
2019-01-28T15:05:29.049Z,2.40
2019-01-28T15:07:58.218Z,3.10
2019-01-28T15:10:27.764Z,1.73
2019-01-28T15:12:56.918Z,2.60
2019-01-28T15:15:31.436Z,3.23
2019-01-28T15:18:00.374Z,2.03
2019-01-28T15:20:30.120Z,2.00
2019-01-28T15:22:59.587Z,1.43
2019-01-28T15:25:29.112Z,2.00
2019-01-28T15:27:57.915Z,1.77
2019-01-28T15:30:28.293Z,1.40
2019-01-28T15:32:57.387Z,2.43
2019-01-28T15:35:27.289Z,2.50
2019-01-28T15:37:56.183Z,3.00
2019-01-28T15:40:27.724Z,2.73
2019-01-28T15:42:56.859Z,2.07
2019-01-28T15:45:37.173Z,3.37
2019-01-28T15:48:07.052Z,2.70
2019-01-28T15:50:36.050Z,2.33
2019-01-28T15:53:05.883Z,2.10
2019-01-28T15:55:36.697Z,2.37
2019-01-28T15:58:06.508Z,2.63
2019-01-28T16:00:36.217Z,2.03
2019-01-28T16:03:07.478Z,1.73
2019-01-28T16:05:36.504Z,2.40
2019-01-28T16:08:06.253Z,2.70
2019-01-28T16:10:35.215Z,2.33
2019-01-28T16:13:04.399Z,3.23
2019-01-28T16:15:35.736Z,3.90
2019-01-28T16:18:08.841Z,2.67
2019-01-28T16:20:36.760Z,1.97
2019-01-28T16:23:06.339Z,2.47
2019-01-28T16:25:36.236Z,2.03
2019-01-28T16:28:06.025Z,1.90
2019-01-28T16:30:35.732Z,2.27
2019-01-28T16:33:05.379Z,1.63
2019-01-28T16:35:34.637Z,1.93
2019-01-28T16:38:04.190Z,2.83
2019-01-28T16:40:33.807Z,3.27
2019-01-28T16:43:02.871Z,2.00
2019-01-28T16:45:31.896Z,2.23
2019-01-28T16:48:01.183Z,1.90
2019-01-28T16:50:30.951Z,2.13
2019-01-28T16:52:59.887Z,2.10
2019-01-28T16:55:28.747Z,1.83
2019-01-28T16:57:58.311Z,1.83
2019-01-28T17:00:29.212Z,2.00
2019-01-28T17:02:58.059Z,1.97
2019-01-28T17:05:27.470Z,3.20
2019-01-28T17:07:56.768Z,2.47
2019-01-28T17:10:26.093Z,2.80
2019-01-28T17:12:55.062Z,3.17
2019-01-28T17:15:25.138Z,2.37
2019-01-28T17:17:54.208Z,2.07
2019-01-28T17:20:25.467Z,2.40
2019-01-28T17:22:54.544Z,2.00
2019-01-28T17:25:38.712Z,2.37
2019-01-28T17:28:07.598Z,2.53
2019-01-28T17:30:41.723Z,2.20
2019-01-28T17:33:10.879Z,2.90
2019-01-28T17:35:40.077Z,1.90
2019-01-28T17:38:10.012Z,2.20
2019-01-28T17:40:40.344Z,2.80
2019-01-28T17:43:10.589Z,2.10
2019-01-28T17:45:39.847Z,2.37
2019-01-28T17:48:09.350Z,3.00
2019-01-28T17:50:43.622Z,2.80
2019-01-28T17:53:09.852Z,1.80
2019-01-28T17:55:38.844Z,1.90
2019-01-28T17:58:08.919Z,2.33
2019-01-28T18:00:46.095Z,2.17
2019-01-28T18:03:15.045Z,1.80
2019-01-28T18:05:44.140Z,1.67
2019-01-28T18:08:13.091Z,1.93
2019-01-28T18:10:42.039Z,2.07
2019-01-28T18:13:11.181Z,3.00
2019-01-28T18:15:40.472Z,1.80
2019-01-28T18:18:10.264Z,1.83
2019-01-28T18:20:39.269Z,1.93
2019-01-28T18:23:09.950Z,2.30
2019-01-28T18:25:39.282Z,2.67
2019-01-28T18:28:08.079Z,2.67
2019-01-28T18:30:43.176Z,2.90
2019-01-28T18:33:12.054Z,3.10
2019-01-28T18:35:41.018Z,2.17
2019-01-28T18:38:10.086Z,2.40
2019-01-28T18:40:38.951Z,2.57
2019-01-28T18:43:08.167Z,3.43
2019-01-28T18:45:37.392Z,2.73
2019-01-28T18:48:08.229Z,2.83
2019-01-28T18:50:37.434Z,1.70
2019-01-28T18:53:08.003Z,2.50
2019-01-28T18:55:36.802Z,2.90
2019-01-28T18:58:06.256Z,2.70
2019-01-28T19:00:35.243Z,3.10
2019-01-28T19:03:05.055Z,2.77
2019-01-28T19:05:52.033Z,2.00
2019-01-28T19:08:31.597Z,3.10
2019-01-28T19:11:18.552Z,2.50
2019-01-28T19:13:55.319Z,2.63
2019-01-28T19:16:30.586Z,3.10
2019-01-28T19:19:13.041Z,2.87
2019-01-28T19:21:47.180Z,2.73
2019-01-28T19:24:15.963Z,2.60
2019-01-28T19:26:44.855Z,1.77
2019-01-28T19:29:13.699Z,2.10
2019-01-28T19:31:42.792Z,3.40
2019-01-28T19:34:11.647Z,2.30
2019-01-28T19:36:40.612Z,2.17
2019-01-28T19:39:10.370Z,2.60
2019-01-28T19:41:39.512Z,2.90
2019-01-28T19:44:08.731Z,3.80
2019-01-28T19:46:37.888Z,2.90
2019-01-28T19:49:06.886Z,3.77
2019-01-28T19:51:35.746Z,3.20
2019-01-28T19:54:05.722Z,3.37
2019-01-28T19:56:34.621Z,2.27
2019-01-28T19:59:03.476Z,3.40
2019-01-28T20:01:32.815Z,3.20
2019-01-28T20:04:01.666Z,2.20
2019-01-28T20:06:31.105Z,2.80
2019-01-28T20:09:00.115Z,3.47
2019-01-28T20:11:29.131Z,3.37
2019-01-28T20:13:58.149Z,3.47
2019-01-28T20:16:27.086Z,3.43
2019-01-28T20:18:56.154Z,3.80
2019-01-28T20:21:25.087Z,3.80
2019-01-28T20:23:54.036Z,3.27
2019-01-28T20:26:22.986Z,3.10
2019-01-28T20:28:51.885Z,3.73
2019-01-28T20:31:22.060Z,4.07
2019-01-28T20:33:51.238Z,4.13
2019-01-28T20:36:20.098Z,3.83
2019-01-28T20:38:49.325Z,3.10
2019-01-28T20:41:18.118Z,3.07
2019-01-28T20:43:47.000Z,3.77
2019-01-28T20:46:16.026Z,4.20
2019-01-28T20:48:44.923Z,5.90
2019-01-28T20:51:14.084Z,2.63
2019-01-28T20:53:42.892Z,4.30
2019-01-28T20:56:12.060Z,4.40
2019-01-28T20:58:41.125Z,3.67
2019-01-28T21:01:10.394Z,3.87
2019-01-28T21:03:39.271Z,3.57
2019-01-28T21:06:08.527Z,3.67
2019-01-28T21:08:37.587Z,3.67
2019-01-28T21:11:06.711Z,4.17
2019-01-28T21:13:35.951Z,3.50
2019-01-28T21:16:05.487Z,4.07
2019-01-28T21:18:34.422Z,4.33
2019-01-28T21:21:03.730Z,3.43
2019-01-28T21:23:32.882Z,3.13
2019-01-28T21:26:01.992Z,4.63
2019-01-28T21:28:31.123Z,3.07
2019-01-28T21:31:03.615Z,2.73
2019-01-28T21:33:32.914Z,2.80
2019-01-28T21:36:18.225Z,4.00
2019-01-28T21:38:51.661Z,3.83
2019-01-28T21:41:20.844Z,3.87
2019-01-28T21:43:50.146Z,3.90
2019-01-28T21:46:19.763Z,4.10
2019-01-28T21:48:49.197Z,3.90
2019-01-28T21:51:18.060Z,3.67
2019-01-28T21:53:46.995Z,3.70
2019-01-28T21:56:16.302Z,3.97
2019-01-28T21:58:45.132Z,5.13
2019-01-28T22:01:14.123Z,3.37
2019-01-28T22:03:43.069Z,3.40
2019-01-28T22:06:11.953Z,3.23
2019-01-28T22:08:41.649Z,4.80
2019-01-28T22:11:10.645Z,3.80
2019-01-28T22:13:39.491Z,4.37
2019-01-28T22:16:08.383Z,4.03
2019-01-28T22:18:37.253Z,4.33
2019-01-28T22:21:13.039Z,4.20
2019-01-28T22:23:44.649Z,6.27
2019-01-28T22:26:13.322Z,6.27
2019-01-28T22:28:42.186Z,4.20
2019-01-28T22:31:11.675Z,5.93
2019-01-28T22:33:40.567Z,5.10
2019-01-28T22:36:09.439Z,6.00
2019-01-28T22:38:38.290Z,6.77
2019-01-28T22:41:07.075Z,7.17
2019-01-28T22:43:36.547Z,5.50
2019-01-28T22:46:05.840Z,5.70
2019-01-28T22:48:34.941Z,6.70
2019-01-28T22:51:04.575Z,7.53
2019-01-28T22:53:33.455Z,7.20
2019-01-28T22:56:02.373Z,5.40
2019-01-28T22:58:31.362Z,7.03
2019-01-28T23:01:26.951Z,7.40
2019-01-28T23:03:56.213Z,8.50
2019-01-28T23:06:25.259Z,7.20
2019-01-28T23:08:54.378Z,7.50
2019-01-28T23:11:23.528Z,10.67
2019-01-28T23:13:52.564Z,8.73
2019-01-28T23:16:21.604Z,8.27
2019-01-28T23:18:50.577Z,9.33
2019-01-28T23:21:19.519Z,7.90
2019-01-28T23:23:48.357Z,7.83
2019-01-28T23:26:17.336Z,7.73
2019-01-28T23:28:46.145Z,6.93
2019-01-28T23:31:15.484Z,9.23
2019-01-28T23:33:44.248Z,10.07
2019-01-28T23:36:32.445Z,10.37
2019-01-28T23:39:01.232Z,8.80
2019-01-28T23:41:30.047Z,10.60
2019-01-28T23:43:58.911Z,9.10
2019-01-28T23:46:27.774Z,8.63
2019-01-28T23:48:56.607Z,10.10
2019-01-28T23:51:25.838Z,10.00
2019-01-28T23:53:54.694Z,9.90
2019-01-28T23:56:23.494Z,9.90
2019-01-28T23:58:52.747Z,10.97
